createdAt,value
2022-09-03T00:00:10.673Z,13.8
2022-09-03T00:01:12.451Z,13.7
2022-09-03T00:02:13.472Z,13.7
2022-09-03T00:03:07.357Z,13.7
2022-09-03T00:04:08.145Z,13.7
2022-09-03T00:05:10.228Z,13.7
2022-09-03T00:06:14.782Z,13.7
2022-09-03T00:07:06.858Z,13.7
2022-09-03T00:08:07.602Z,13.6
2022-09-03T00:09:08.143Z,13.6
2022-09-03T00:10:04.596Z,13.6
2022-09-03T00:11:20.124Z,13.6
2022-09-03T00:12:09.994Z,13.6
2022-09-03T00:13:04.344Z,13.6
2022-09-03T00:14:05.853Z,13.6
2022-09-03T00:15:05.447Z,13.6
2022-09-03T00:16:04.414Z,13.6
2022-09-03T00:17:05.961Z,13.6
2022-09-03T00:18:14.516Z,13.6
2022-09-03T00:19:02.840Z,13.6
2022-09-03T00:20:17.562Z,13.5
2022-09-03T00:21:03.726Z,13.5
2022-09-03T00:22:14.065Z,13.5
2022-09-03T00:23:04.620Z,13.5
2022-09-03T00:24:03.459Z,13.5
2022-09-03T00:25:03.876Z,13.5
2022-09-03T00:26:10.187Z,13.5
2022-09-03T00:27:05.174Z,13.4
2022-09-03T00:28:05.012Z,13.4
2022-09-03T00:29:08.320Z,13.4
2022-09-03T00:30:05.046Z,13.4
2022-09-03T00:31:09.562Z,13.4
2022-09-03T00:32:06.691Z,13.4
2022-09-03T00:33:04.168Z,13.4
2022-09-03T00:34:06.476Z,13.4
2022-09-03T00:35:03.743Z,13.3
2022-09-03T00:36:01.303Z,13.3
2022-09-03T00:37:00.312Z,13.3
2022-09-03T00:38:00.649Z,13.3
2022-09-03T00:39:00.254Z,13.3
2022-09-03T00:40:00.423Z,13.3
2022-09-03T00:41:08.583Z,13.3
2022-09-03T00:42:16.895Z,13.2
2022-09-03T00:43:10.892Z,13.2
2022-09-03T00:44:12.786Z,13.2
2022-09-03T00:45:08.790Z,13.2
2022-09-03T00:46:03.612Z,13.2
2022-09-03T00:47:09.957Z,13.2
2022-09-03T00:48:10.058Z,13.2
2022-09-03T00:49:19.633Z,13.2
2022-09-03T00:50:12.143Z,13.2
2022-09-03T00:51:18.816Z,13.1
2022-09-03T00:52:11.204Z,13.1
2022-09-03T00:53:08.747Z,13.1
2022-09-03T00:54:20.158Z,13.1
2022-09-03T00:55:15.663Z,13.1
2022-09-03T00:56:16.357Z,13.1
2022-09-03T00:57:17.526Z,13.1
2022-09-03T00:58:20.137Z,13.0
2022-09-03T00:59:12.258Z,13.0
2022-09-03T01:00:11.588Z,13.0
2022-09-03T01:01:09.216Z,13.0
2022-09-03T01:02:06.657Z,13.0
2022-09-03T01:03:11.188Z,13.0
2022-09-03T01:04:10.811Z,13.0
2022-09-03T01:05:07.626Z,12.9
2022-09-03T01:06:12.013Z,12.9
2022-09-03T01:07:14.394Z,12.9
2022-09-03T01:08:15.947Z,12.9
2022-09-03T01:09:13.449Z,12.9
2022-09-03T01:10:15.198Z,12.9
2022-09-03T01:11:08.016Z,12.9
2022-09-03T01:12:12.416Z,12.9
2022-09-03T01:13:08.265Z,12.9
2022-09-03T01:14:20.135Z,12.8
2022-09-03T01:15:03.488Z,12.8
2022-09-03T01:16:11.292Z,12.8
2022-09-03T01:17:17.649Z,12.8
2022-09-03T01:18:10.175Z,12.8
2022-09-03T01:19:20.131Z,12.7
2022-09-03T01:20:19.227Z,12.8
2022-09-03T01:21:13.443Z,12.8
2022-09-03T01:22:13.503Z,12.7
2022-09-03T01:23:18.289Z,12.7
2022-09-03T01:24:20.134Z,12.7
2022-09-03T01:25:10.423Z,12.7
2022-09-03T01:26:09.703Z,12.6
2022-09-03T01:27:12.331Z,12.6
2022-09-03T01:28:17.620Z,12.6
2022-09-03T01:29:08.996Z,12.6
2022-09-03T01:30:06.357Z,12.6
2022-09-03T01:31:11.262Z,12.6
2022-09-03T01:32:06.209Z,12.6
2022-09-03T01:33:11.726Z,12.5
2022-09-03T01:34:11.230Z,12.5
2022-09-03T01:35:10.248Z,12.5
2022-09-03T01:36:11.840Z,12.4
2022-09-03T01:37:14.673Z,12.4
2022-09-03T01:38:16.184Z,12.4
2022-09-03T01:39:04.635Z,12.4
2022-09-03T01:40:20.162Z,12.4
2022-09-03T01:41:04.600Z,12.4
2022-09-03T01:42:13.456Z,12.3
2022-09-03T01:43:11.204Z,12.3
2022-09-03T01:44:13.326Z,12.3
2022-09-03T01:45:10.162Z,12.3
2022-09-03T01:46:08.533Z,12.3
2022-09-03T01:47:14.436Z,12.3
2022-09-03T01:48:15.821Z,12.2
2022-09-03T01:49:05.235Z,12.2
2022-09-03T01:50:20.131Z,12.2
2022-09-03T01:51:10.192Z,12.2
2022-09-03T01:52:10.080Z,12.1
2022-09-03T01:53:20.137Z,12.1
2022-09-03T01:54:21.280Z,12.1
2022-09-03T01:55:20.135Z,12.1
2022-09-03T01:56:10.190Z,12.1
2022-09-03T01:57:15.122Z,12.0
2022-09-03T01:58:13.580Z,12.0
2022-09-03T01:59:12.589Z,11.9
2022-09-03T02:00:04.614Z,11.9
2022-09-03T02:01:06.392Z,11.9
2022-09-03T02:02:02.965Z,11.9
2022-09-03T02:03:06.606Z,11.9
2022-09-03T02:04:00.812Z,11.9
2022-09-03T02:05:04.800Z,11.9
2022-09-03T02:06:00.603Z,11.9
2022-09-03T02:07:01.515Z,11.9
2022-09-03T02:08:04.119Z,11.9
2022-09-03T02:09:00.241Z,11.9
2022-09-03T02:10:01.679Z,11.9
2022-09-03T02:11:00.772Z,11.8
2022-09-03T02:12:07.419Z,11.8
2022-09-03T02:13:06.029Z,11.8
2022-09-03T02:14:00.337Z,11.8
2022-09-03T02:15:03.964Z,11.8
2022-09-03T02:16:10.469Z,11.8
2022-09-03T02:17:04.048Z,11.8
2022-09-03T02:18:04.525Z,11.8
2022-09-03T02:19:06.119Z,11.8
2022-09-03T02:20:05.708Z,11.8
2022-09-03T02:21:00.327Z,11.7
2022-09-03T02:22:00.320Z,11.7
2022-09-03T02:23:01.579Z,11.7
2022-09-03T02:24:02.048Z,11.7
2022-09-03T02:25:00.700Z,11.6
2022-09-03T02:26:02.170Z,11.6
2022-09-03T02:27:00.331Z,11.6
2022-09-03T02:28:00.881Z,11.6
2022-09-03T02:29:01.925Z,11.6
2022-09-03T02:30:00.266Z,11.6
2022-09-03T02:31:00.531Z,11.6
2022-09-03T02:32:00.453Z,11.5
2022-09-03T02:33:00.775Z,11.5
2022-09-03T02:34:00.768Z,11.5
2022-09-03T02:35:00.372Z,11.5
2022-09-03T02:36:02.967Z,11.5
2022-09-03T02:37:12.314Z,11.4
2022-09-03T02:38:11.350Z,11.4
2022-09-03T02:39:00.961Z,11.4
2022-09-03T02:40:00.673Z,11.4
2022-09-03T02:41:00.643Z,11.4
2022-09-03T02:42:00.513Z,11.3
2022-09-03T02:43:02.232Z,11.3
2022-09-03T02:44:14.799Z,11.3
2022-09-03T02:45:11.850Z,11.3
2022-09-03T02:46:03.814Z,11.3
2022-09-03T02:47:03.784Z,11.3
2022-09-03T02:48:00.310Z,11.2
2022-09-03T02:49:00.385Z,11.2
2022-09-03T02:50:00.225Z,11.2
2022-09-03T02:51:00.634Z,11.2
2022-09-03T02:52:05.384Z,11.2
2022-09-03T02:53:00.226Z,11.2
2022-09-03T02:54:00.398Z,11.2
2022-09-03T02:55:00.288Z,11.1
2022-09-03T02:56:01.390Z,11.1
2022-09-03T02:57:00.779Z,11.1
2022-09-03T02:58:00.332Z,11.1
2022-09-03T02:59:01.078Z,11.1
2022-09-03T03:00:00.341Z,11.0
2022-09-03T03:01:00.356Z,11.1
2022-09-03T03:02:01.040Z,11.0
2022-09-03T03:03:00.814Z,11.0
2022-09-03T03:04:00.281Z,11.0
2022-09-03T03:05:00.282Z,11.0
2022-09-03T03:06:03.742Z,11.0
2022-09-03T03:07:00.282Z,11.0
2022-09-03T03:08:00.565Z,11.0
2022-09-03T03:09:00.333Z,10.9
2022-09-03T03:10:00.335Z,10.9
2022-09-03T03:11:00.936Z,10.9
2022-09-03T03:12:00.305Z,10.9
2022-09-03T03:13:00.418Z,10.9
2022-09-03T03:14:00.218Z,10.9
2022-09-03T03:15:00.278Z,10.9
2022-09-03T03:16:02.915Z,10.9
2022-09-03T03:17:00.408Z,10.8
2022-09-03T03:18:00.291Z,10.8
2022-09-03T03:19:00.251Z,10.8
2022-09-03T03:20:00.250Z,10.8
2022-09-03T03:21:11.420Z,10.8
2022-09-03T03:22:00.275Z,10.8
2022-09-03T03:23:01.543Z,10.8
2022-09-03T03:24:00.962Z,10.7
2022-09-03T03:25:00.239Z,10.7
2022-09-03T03:26:01.895Z,10.7
2022-09-03T03:27:00.241Z,10.7
2022-09-03T03:28:00.445Z,10.7
2022-09-03T03:29:01.458Z,10.7
2022-09-03T03:30:00.272Z,10.7
2022-09-03T03:31:09.983Z,10.7
2022-09-03T03:32:00.465Z,10.7
2022-09-03T03:33:00.281Z,10.7
2022-09-03T03:34:02.266Z,10.6
2022-09-03T03:35:00.252Z,10.6
2022-09-03T03:36:11.550Z,10.6
2022-09-03T03:37:00.305Z,10.6
2022-09-03T03:38:00.359Z,10.6
2022-09-03T03:39:01.159Z,10.6
2022-09-03T03:40:00.443Z,10.6
2022-09-03T03:41:06.927Z,10.5
2022-09-03T03:42:00.264Z,10.5
2022-09-03T03:43:00.246Z,10.5
2022-09-03T03:44:03.195Z,10.5
2022-09-03T03:45:00.634Z,10.5
2022-09-03T03:46:00.386Z,10.5
2022-09-03T03:47:01.273Z,10.5
2022-09-03T03:48:00.245Z,10.5
2022-09-03T03:49:00.396Z,10.4
2022-09-03T03:50:00.628Z,10.4
2022-09-03T03:51:00.897Z,10.4
2022-09-03T03:52:00.259Z,10.4
2022-09-03T03:53:00.279Z,10.4
2022-09-03T03:54:04.460Z,10.4
2022-09-03T03:55:00.221Z,10.4
2022-09-03T03:56:02.849Z,10.4
2022-09-03T03:57:00.300Z,10.4
2022-09-03T03:58:00.302Z,10.4
2022-09-03T03:59:00.369Z,10.4
2022-09-03T04:00:00.448Z,10.4
2022-09-03T04:01:12.254Z,10.3
2022-09-03T04:02:00.281Z,10.3
2022-09-03T04:03:00.215Z,10.4
2022-09-03T04:04:00.626Z,10.4
2022-09-03T04:05:00.254Z,10.4
2022-09-03T04:06:00.842Z,10.4
2022-09-03T04:07:00.292Z,10.3
2022-09-03T04:08:01.169Z,10.3
2022-09-03T04:09:00.296Z,10.3
2022-09-03T04:10:00.265Z,10.3
2022-09-03T04:11:01.754Z,10.3
2022-09-03T04:12:00.645Z,10.3
2022-09-03T04:13:00.239Z,10.3
2022-09-03T04:14:01.610Z,10.3
2022-09-03T04:15:00.233Z,10.3
2022-09-03T04:16:05.945Z,10.3
2022-09-03T04:17:01.152Z,10.3
2022-09-03T04:18:00.281Z,10.3
2022-09-03T04:19:00.248Z,10.2
2022-09-03T04:20:00.325Z,10.2
2022-09-03T04:21:03.400Z,10.2
2022-09-03T04:22:00.335Z,10.2
2022-09-03T04:23:00.401Z,10.2
2022-09-03T04:24:00.230Z,10.3
2022-09-03T04:25:00.219Z,10.3
2022-09-03T04:26:00.442Z,10.3
2022-09-03T04:27:00.306Z,10.3
2022-09-03T04:28:00.385Z,10.4
2022-09-03T04:29:04.449Z,10.4
2022-09-03T04:30:00.243Z,10.5
2022-09-03T04:31:01.733Z,10.6
2022-09-03T04:32:00.360Z,10.6
2022-09-03T04:33:00.219Z,10.7
2022-09-03T04:34:00.601Z,10.8
2022-09-03T04:35:00.322Z,10.9
2022-09-03T04:36:03.076Z,10.9
2022-09-03T04:37:00.218Z,10.9
2022-09-03T04:38:00.227Z,10.9
2022-09-03T04:39:00.760Z,10.9
2022-09-03T04:40:00.400Z,11.0
2022-09-03T04:41:00.803Z,11.0
2022-09-03T04:42:00.284Z,11.0
2022-09-03T04:43:00.323Z,11.1
2022-09-03T04:44:00.286Z,11.1
2022-09-03T04:45:00.229Z,11.2
2022-09-03T04:46:03.335Z,11.2
2022-09-03T04:47:00.221Z,11.4
2022-09-03T04:48:01.996Z,11.4
2022-09-03T04:49:00.777Z,11.5
2022-09-03T04:50:00.236Z,11.5
2022-09-03T04:51:03.193Z,11.4
2022-09-03T04:52:00.687Z,11.5
2022-09-03T04:53:07.644Z,11.6
2022-09-03T04:54:01.336Z,11.6
2022-09-03T04:55:00.263Z,11.7
2022-09-03T04:56:01.917Z,11.7
2022-09-03T04:57:00.263Z,11.8
2022-09-03T04:58:00.364Z,11.8
2022-09-03T04:59:04.187Z,11.8
2022-09-03T05:00:00.236Z,11.9
2022-09-03T05:01:06.379Z,11.7
2022-09-03T05:02:00.304Z,11.6
2022-09-03T05:03:00.405Z,11.6
2022-09-03T05:04:01.276Z,11.7
2022-09-03T05:05:00.230Z,11.6
2022-09-03T05:06:00.229Z,11.6
2022-09-03T05:07:00.303Z,11.4
2022-09-03T05:08:00.914Z,11.5
2022-09-03T05:09:00.387Z,11.7
2022-09-03T05:10:00.223Z,11.8
2022-09-03T05:11:00.466Z,11.8
2022-09-03T05:12:00.291Z,12.0
2022-09-03T05:13:02.814Z,12.0
2022-09-03T05:14:00.240Z,12.1
2022-09-03T05:15:00.270Z,12.2
2022-09-03T05:16:01.854Z,12.2
2022-09-03T05:17:00.308Z,12.2
2022-09-03T05:18:01.556Z,12.1
2022-09-03T05:19:00.266Z,11.9
2022-09-03T05:20:00.226Z,11.9
2022-09-03T05:21:02.576Z,12.0
2022-09-03T05:22:00.214Z,12.1
2022-09-03T05:23:01.708Z,12.3
2022-09-03T05:24:01.270Z,12.5
2022-09-03T05:25:00.330Z,12.6
2022-09-03T05:26:02.307Z,12.7
2022-09-03T05:27:00.217Z,12.6
2022-09-03T05:28:00.616Z,12.6
2022-09-03T05:29:02.899Z,12.5
2022-09-03T05:30:00.228Z,12.6
2022-09-03T05:31:02.318Z,12.6
2022-09-03T05:32:00.338Z,12.5
2022-09-03T05:33:00.225Z,12.3
2022-09-03T05:34:03.148Z,12.4
2022-09-03T05:35:00.236Z,12.6
2022-09-03T05:36:02.549Z,13.0
2022-09-03T05:37:00.253Z,13.2
2022-09-03T05:38:00.234Z,13.3
2022-09-03T05:39:00.382Z,13.2
2022-09-03T05:40:00.311Z,13.5
2022-09-03T05:41:01.764Z,13.5
2022-09-03T05:42:00.223Z,13.4
2022-09-03T05:43:00.227Z,13.4
2022-09-03T05:44:00.644Z,13.1
2022-09-03T05:45:00.239Z,12.6
2022-09-03T05:46:03.653Z,12.6
2022-09-03T05:47:00.215Z,12.8
2022-09-03T05:48:00.311Z,12.7
2022-09-03T05:49:02.497Z,12.7
2022-09-03T05:50:00.218Z,12.6
2022-09-03T05:51:02.642Z,12.6
2022-09-03T05:52:00.352Z,12.4
2022-09-03T05:53:00.246Z,12.5
2022-09-03T05:54:00.909Z,12.4
2022-09-03T05:55:00.294Z,12.3
2022-09-03T05:56:03.053Z,12.4
2022-09-03T05:57:00.739Z,12.5
2022-09-03T05:58:00.277Z,12.5
2022-09-03T05:59:04.648Z,12.5
2022-09-03T06:00:00.317Z,12.5
2022-09-03T06:01:12.405Z,12.8
2022-09-03T06:02:00.681Z,12.8
2022-09-03T06:03:00.354Z,12.9
2022-09-03T06:04:03.029Z,12.9
2022-09-03T06:05:00.335Z,12.9
2022-09-03T06:06:00.223Z,13.0
2022-09-03T06:07:00.323Z,13.2
2022-09-03T06:08:00.387Z,13.4
2022-09-03T06:09:03.626Z,13.5
2022-09-03T06:10:00.229Z,13.7
2022-09-03T06:11:00.847Z,13.9
2022-09-03T06:12:03.955Z,13.9
2022-09-03T06:13:00.213Z,13.7
2022-09-03T06:14:02.592Z,13.6
2022-09-03T06:15:00.238Z,13.4
2022-09-03T06:16:03.452Z,13.5
2022-09-03T06:17:00.303Z,13.6
2022-09-03T06:18:00.338Z,13.6
2022-09-03T06:19:00.443Z,13.9
2022-09-03T06:20:00.300Z,14.3
2022-09-03T06:21:02.410Z,14.7
2022-09-03T06:22:00.227Z,14.8
2022-09-03T06:23:00.237Z,15.0
2022-09-03T06:24:00.473Z,15.2
2022-09-03T06:25:00.612Z,15.3
2022-09-03T06:26:06.172Z,15.2
2022-09-03T06:27:00.218Z,15.0
2022-09-03T06:28:00.272Z,14.8
2022-09-03T06:29:00.255Z,14.7
2022-09-03T06:30:00.240Z,14.6
2022-09-03T06:31:01.860Z,14.5
2022-09-03T06:32:00.276Z,14.3
2022-09-03T06:33:00.214Z,14.3
2022-09-03T06:34:04.059Z,14.5
2022-09-03T06:35:00.240Z,14.4
2022-09-03T06:36:04.577Z,14.2
2022-09-03T06:37:00.282Z,14.6
2022-09-03T06:38:00.288Z,14.9
2022-09-03T06:39:00.664Z,15.1
2022-09-03T06:40:00.428Z,15.4
2022-09-03T06:41:01.767Z,15.7
2022-09-03T06:42:00.256Z,16.0
2022-09-03T06:43:00.227Z,15.9
2022-09-03T06:44:03.730Z,15.9
2022-09-03T06:45:00.254Z,16.0
2022-09-03T06:46:03.362Z,16.2
2022-09-03T06:47:00.216Z,15.9
2022-09-03T06:48:00.261Z,15.9
2022-09-03T06:49:00.855Z,15.9
2022-09-03T06:50:00.385Z,15.7
2022-09-03T06:51:03.797Z,15.5
2022-09-03T06:52:00.347Z,15.5
2022-09-03T06:53:00.214Z,15.7
2022-09-03T06:54:05.821Z,15.4
2022-09-03T06:55:00.290Z,15.3
2022-09-03T06:56:03.646Z,15.3
2022-09-03T06:57:00.223Z,15.6
2022-09-03T06:58:00.306Z,15.9
2022-09-03T06:59:04.767Z,16.2
2022-09-03T07:00:00.365Z,16.6
2022-09-03T07:01:01.084Z,16.7
2022-09-03T07:02:00.359Z,16.9
2022-09-03T07:03:00.219Z,17.1
2022-09-03T07:04:03.451Z,17.1
2022-09-03T07:05:00.278Z,16.9
2022-09-03T07:06:01.572Z,16.8
2022-09-03T07:07:00.504Z,17.0
2022-09-03T07:08:00.274Z,17.0
2022-09-03T07:09:00.238Z,17.4
2022-09-03T07:10:00.303Z,17.2
2022-09-03T07:11:02.421Z,17.0
2022-09-03T07:12:00.351Z,17.3
2022-09-03T07:13:00.224Z,17.6
2022-09-03T07:14:01.988Z,17.5
2022-09-03T07:15:00.279Z,17.6
2022-09-03T07:16:02.503Z,17.7
2022-09-03T07:17:00.222Z,17.5
2022-09-03T07:18:00.279Z,17.7
2022-09-03T07:19:00.791Z,18.0
2022-09-03T07:20:00.267Z,17.8
2022-09-03T07:21:02.188Z,17.9
2022-09-03T07:22:00.254Z,17.4
2022-09-03T07:23:00.215Z,17.3
2022-09-03T07:24:00.296Z,17.3
2022-09-03T07:25:00.226Z,17.5
2022-09-03T07:26:04.705Z,17.5
2022-09-03T07:27:00.283Z,17.3
2022-09-03T07:28:00.365Z,17.4
2022-09-03T07:29:00.366Z,17.5
2022-09-03T07:30:00.314Z,17.9
2022-09-03T07:31:03.963Z,17.9
2022-09-03T07:32:00.537Z,18.1
2022-09-03T07:33:00.250Z,18.0
2022-09-03T07:34:03.099Z,18.0
2022-09-03T07:35:00.253Z,17.8
2022-09-03T07:36:06.389Z,17.9
2022-09-03T07:37:00.247Z,18.3
2022-09-03T07:38:00.268Z,18.4
2022-09-03T07:39:00.264Z,18.3
2022-09-03T07:40:00.460Z,17.9
2022-09-03T07:41:03.742Z,18.0
2022-09-03T07:42:00.214Z,18.5
2022-09-03T07:43:00.250Z,18.5
2022-09-03T07:44:00.445Z,18.6
2022-09-03T07:45:00.313Z,18.7
2022-09-03T07:46:00.611Z,19.1
2022-09-03T07:47:00.315Z,19.3
2022-09-03T07:48:00.304Z,19.2
2022-09-03T07:49:00.572Z,18.7
2022-09-03T07:50:00.529Z,18.7
2022-09-03T07:51:00.813Z,18.5
2022-09-03T07:52:00.328Z,18.8
2022-09-03T07:53:00.227Z,19.2
2022-09-03T07:54:02.299Z,19.1
2022-09-03T07:55:00.227Z,18.6
2022-09-03T07:56:01.280Z,18.5
2022-09-03T07:57:00.252Z,17.9
2022-09-03T07:58:00.307Z,17.9
2022-09-03T07:59:00.989Z,18.1
2022-09-03T08:00:00.362Z,18.3
2022-09-03T08:01:11.213Z,18.5
2022-09-03T08:02:00.230Z,18.7
2022-09-03T08:03:00.245Z,19.1
2022-09-03T08:04:01.657Z,19.3
2022-09-03T08:05:00.263Z,19.6
2022-09-03T08:06:02.747Z,19.7
2022-09-03T08:07:00.594Z,19.9
2022-09-03T08:08:00.237Z,19.9
2022-09-03T08:09:05.294Z,19.6
2022-09-03T08:10:00.245Z,19.8
2022-09-03T08:11:07.242Z,20.3
2022-09-03T08:12:00.257Z,20.9
2022-09-03T08:13:00.320Z,20.6
2022-09-03T08:14:03.167Z,20.0
2022-09-03T08:15:00.255Z,19.9
2022-09-03T08:16:00.464Z,19.6
2022-09-03T08:17:00.250Z,19.5
2022-09-03T08:18:03.718Z,19.6
2022-09-03T08:19:00.241Z,19.5
2022-09-03T08:20:00.316Z,19.5
2022-09-03T08:21:00.439Z,19.6
2022-09-03T08:22:00.532Z,19.7
2022-09-03T08:23:00.893Z,19.1
2022-09-03T08:24:00.349Z,18.9
2022-09-03T08:25:00.249Z,18.5
2022-09-03T08:26:00.493Z,18.5
2022-09-03T08:27:00.233Z,18.8
2022-09-03T08:28:00.298Z,18.7
2022-09-03T08:29:00.516Z,18.9
2022-09-03T08:30:00.381Z,19.2
2022-09-03T08:31:05.113Z,19.5
2022-09-03T08:32:00.356Z,19.1
2022-09-03T08:33:01.315Z,18.9
2022-09-03T08:34:02.214Z,18.7
2022-09-03T08:35:00.261Z,19.0
2022-09-03T08:36:00.266Z,19.0
2022-09-03T08:37:00.240Z,19.1
2022-09-03T08:38:00.263Z,19.4
2022-09-03T08:39:02.631Z,19.2
2022-09-03T08:40:00.518Z,18.8
2022-09-03T08:41:02.895Z,18.7
2022-09-03T08:42:01.250Z,18.7
2022-09-03T08:43:10.189Z,18.8
2022-09-03T08:44:02.983Z,18.4
2022-09-03T08:45:05.024Z,18.5
2022-09-03T08:46:01.358Z,18.5
2022-09-03T08:47:13.298Z,19.0
2022-09-03T08:48:07.810Z,19.0
2022-09-03T08:49:01.145Z,19.3
2022-09-03T08:50:08.723Z,19.5
2022-09-03T08:51:02.655Z,19.9
2022-09-03T08:52:03.969Z,20.0
2022-09-03T08:53:13.130Z,20.1
2022-09-03T08:54:01.386Z,20.1
2022-09-03T08:55:13.066Z,20.2
2022-09-03T08:56:08.072Z,20.2
2022-09-03T08:57:02.158Z,19.8
2022-09-03T08:58:08.676Z,19.7
2022-09-03T08:59:00.766Z,20.1
2022-09-03T09:00:00.299Z,20.1
2022-09-03T09:01:16.299Z,19.7
2022-09-03T09:02:13.582Z,19.2
2022-09-03T09:03:16.801Z,19.5
2022-09-03T09:04:10.188Z,19.5
2022-09-03T09:05:14.523Z,20.9
2022-09-03T09:06:20.157Z,20.4
2022-09-03T09:07:13.403Z,19.7
2022-09-03T09:08:19.646Z,19.8
2022-09-03T09:09:02.287Z,19.8
2022-09-03T09:10:15.291Z,19.3
2022-09-03T09:11:11.249Z,19.3
2022-09-03T09:12:10.217Z,19.6
2022-09-03T09:13:11.222Z,19.6
2022-09-03T09:14:07.968Z,19.8
2022-09-03T09:15:07.741Z,19.7
2022-09-03T09:16:11.308Z,19.5
2022-09-03T09:17:14.219Z,19.1
2022-09-03T09:18:10.745Z,19.1
2022-09-03T09:19:15.513Z,18.9
2022-09-03T09:20:14.708Z,19.2
2022-09-03T09:21:08.296Z,19.2
2022-09-03T09:22:04.281Z,19.6
2022-09-03T09:23:02.708Z,19.5
2022-09-03T09:24:06.003Z,19.6
2022-09-03T09:25:04.942Z,19.7
2022-09-03T09:26:06.008Z,20.0
2022-09-03T09:27:04.450Z,20.5
2022-09-03T09:28:03.694Z,20.5
2022-09-03T09:29:06.324Z,20.5
2022-09-03T09:30:04.405Z,20.4
2022-09-03T09:31:02.897Z,20.4
2022-09-03T09:32:00.684Z,20.6
2022-09-03T09:33:00.244Z,20.9
2022-09-03T09:34:04.827Z,21.3
2022-09-03T09:35:00.226Z,21.5
2022-09-03T09:36:06.630Z,21.3
2022-09-03T09:37:04.716Z,20.7
2022-09-03T09:38:00.476Z,20.1
2022-09-03T09:39:09.402Z,20.0
2022-09-03T09:40:00.521Z,19.8
2022-09-03T09:41:11.653Z,19.4
2022-09-03T09:42:04.087Z,19.4
2022-09-03T09:43:12.256Z,19.1
2022-09-03T09:44:01.762Z,19.1
2022-09-03T09:45:09.099Z,19.2
2022-09-03T09:46:07.863Z,19.1
2022-09-03T09:47:05.594Z,19.2
2022-09-03T09:48:01.921Z,19.3
2022-09-03T09:49:00.281Z,19.4
2022-09-03T09:50:01.694Z,19.3
2022-09-03T09:51:11.867Z,19.3
2022-09-03T09:52:01.748Z,19.3
2022-09-03T09:53:02.651Z,19.3
2022-09-03T09:54:01.533Z,19.3
2022-09-03T09:55:14.393Z,19.3
2022-09-03T09:56:00.409Z,19.3
2022-09-03T09:57:04.753Z,19.2
2022-09-03T09:58:05.801Z,19.0
2022-09-03T09:59:04.932Z,18.9
2022-09-03T10:00:06.755Z,18.8
2022-09-03T10:01:11.160Z,18.8
2022-09-03T10:02:09.335Z,18.8
2022-09-03T10:03:00.403Z,18.9
2022-09-03T10:04:08.550Z,18.9
2022-09-03T10:05:14.675Z,18.8
2022-09-03T10:06:05.432Z,18.8
2022-09-03T10:07:20.164Z,18.9
2022-09-03T10:08:03.063Z,18.9
2022-09-03T10:09:09.450Z,18.9
2022-09-03T10:10:05.566Z,19.0
2022-09-03T10:11:00.333Z,19.1
2022-09-03T10:12:08.336Z,19.2
2022-09-03T10:13:08.776Z,19.2
2022-09-03T10:14:01.243Z,19.1
2022-09-03T10:15:14.490Z,18.9
2022-09-03T10:16:07.220Z,18.9
2022-09-03T10:17:08.180Z,18.9
2022-09-03T10:18:14.829Z,19.3
2022-09-03T10:19:08.503Z,19.3
2022-09-03T10:20:09.350Z,19.4
2022-09-03T10:21:05.467Z,19.5
2022-09-03T10:22:08.939Z,19.6
2022-09-03T10:23:09.462Z,19.8
2022-09-03T10:24:13.645Z,19.6
2022-09-03T10:25:02.225Z,19.6
2022-09-03T10:26:05.173Z,19.5
2022-09-03T10:27:00.283Z,19.5
2022-09-03T10:28:00.625Z,19.4
2022-09-03T10:29:03.246Z,19.3
2022-09-03T10:30:00.373Z,19.4
2022-09-03T10:31:10.240Z,19.5
2022-09-03T10:32:11.216Z,19.5
2022-09-03T10:33:07.519Z,19.3
2022-09-03T10:34:13.463Z,19.1
2022-09-03T10:35:17.824Z,19.1
2022-09-03T10:36:10.691Z,19.1
2022-09-03T10:37:04.842Z,19.2
2022-09-03T10:38:02.279Z,19.1
2022-09-03T10:39:09.302Z,19.3
2022-09-03T10:40:11.271Z,19.5
2022-09-03T10:41:10.192Z,19.5
2022-09-03T10:42:10.175Z,19.4
2022-09-03T10:43:20.133Z,19.5
2022-09-03T10:44:20.141Z,19.5
2022-09-03T10:45:16.437Z,19.3
2022-09-03T10:46:10.285Z,19.3
2022-09-03T10:47:08.234Z,19.1
2022-09-03T10:48:13.430Z,19.2
2022-09-03T10:49:20.153Z,19.3
2022-09-03T10:50:01.243Z,19.3
2022-09-03T10:51:11.229Z,19.4
2022-09-03T10:52:16.152Z,19.5
2022-09-03T10:53:12.782Z,19.6
2022-09-03T10:54:11.188Z,19.6
2022-09-03T10:55:10.172Z,19.7
2022-09-03T10:56:03.097Z,19.6
2022-09-03T10:57:18.646Z,19.7
2022-09-03T10:58:20.157Z,19.8
2022-09-03T10:59:17.553Z,19.7
2022-09-03T11:00:03.528Z,19.7
2022-09-03T11:01:17.062Z,19.3
2022-09-03T11:02:20.246Z,19.3
2022-09-03T11:03:21.161Z,19.3
2022-09-03T11:04:17.606Z,19.3
2022-09-03T11:05:00.277Z,19.3
2022-09-03T11:06:08.437Z,19.3
2022-09-03T11:07:03.815Z,19.5
2022-09-03T11:08:10.191Z,19.6
2022-09-03T11:09:10.817Z,19.6
2022-09-03T11:10:10.947Z,19.6
2022-09-03T11:11:10.822Z,19.6
2022-09-03T11:12:08.996Z,19.7
2022-09-03T11:13:11.485Z,19.8
2022-09-03T11:14:06.640Z,19.8
2022-09-03T11:15:04.814Z,19.8
2022-09-03T11:16:09.176Z,19.9
2022-09-03T11:17:08.640Z,19.8
2022-09-03T11:18:15.904Z,19.6
2022-09-03T11:19:05.104Z,19.6
2022-09-03T11:20:14.234Z,19.7
2022-09-03T11:21:11.836Z,19.7
2022-09-03T11:22:01.269Z,19.6
2022-09-03T11:23:03.488Z,19.6
2022-09-03T11:24:14.336Z,19.6
2022-09-03T11:25:02.182Z,19.6
2022-09-03T11:26:04.560Z,19.8
2022-09-03T11:27:14.754Z,19.9
2022-09-03T11:28:11.684Z,19.8
2022-09-03T11:29:05.774Z,19.8
2022-09-03T11:30:05.941Z,20.0
2022-09-03T11:31:15.835Z,20.0
2022-09-03T11:32:06.909Z,20.0
2022-09-03T11:33:07.750Z,20.1
2022-09-03T11:34:07.385Z,20.0
2022-09-03T11:35:00.259Z,20.1
2022-09-03T11:36:01.075Z,20.2
2022-09-03T11:37:06.199Z,20.1
2022-09-03T11:38:03.132Z,19.9
2022-09-03T11:39:10.436Z,19.8
2022-09-03T11:40:03.698Z,19.9
2022-09-03T11:41:10.197Z,19.8
2022-09-03T11:42:03.292Z,19.8
2022-09-03T11:43:10.159Z,19.8
2022-09-03T11:44:18.094Z,19.8
2022-09-03T11:45:20.132Z,19.7
2022-09-03T11:46:01.155Z,19.7
2022-09-03T11:47:00.240Z,19.8
2022-09-03T11:48:00.403Z,20.0
2022-09-03T11:49:11.744Z,20.0
2022-09-03T11:50:07.462Z,20.0
2022-09-03T11:51:00.298Z,20.0
2022-09-03T11:52:02.948Z,19.9
2022-09-03T11:53:08.984Z,19.9
2022-09-03T11:54:02.740Z,19.8
2022-09-03T11:55:00.237Z,19.8
2022-09-03T11:56:15.988Z,19.8
2022-09-03T11:57:06.549Z,19.8
2022-09-03T11:58:20.137Z,20.0
2022-09-03T11:59:12.901Z,20.0
2022-09-03T12:00:07.832Z,20.0
2022-09-03T12:01:02.896Z,20.0
2022-09-03T12:02:10.260Z,20.0
2022-09-03T12:03:02.233Z,20.0
2022-09-03T12:04:03.623Z,20.0
2022-09-03T12:05:11.222Z,20.0
2022-09-03T12:06:17.550Z,20.0
2022-09-03T12:07:12.201Z,20.0
2022-09-03T12:08:09.045Z,20.0
2022-09-03T12:09:17.506Z,19.9
2022-09-03T12:10:11.771Z,19.9
2022-09-03T12:11:10.187Z,19.9
2022-09-03T12:12:19.163Z,19.7
2022-09-03T12:13:12.796Z,19.7
2022-09-03T12:14:13.761Z,19.7
2022-09-03T12:15:20.137Z,19.7
2022-09-03T12:16:11.201Z,19.7
2022-09-03T12:17:13.546Z,19.7
2022-09-03T12:18:03.342Z,19.7
2022-09-03T12:19:06.496Z,19.9
2022-09-03T12:20:00.375Z,20.0
2022-09-03T12:21:01.266Z,20.0
2022-09-03T12:22:00.382Z,19.9
2022-09-03T12:23:00.286Z,19.9
2022-09-03T12:24:01.004Z,19.8
2022-09-03T12:25:12.779Z,19.9
2022-09-03T12:26:04.889Z,19.9
2022-09-03T12:27:01.260Z,20.0
2022-09-03T12:28:01.182Z,20.0
2022-09-03T12:29:00.434Z,20.1
2022-09-03T12:30:03.445Z,20.1
2022-09-03T12:31:18.556Z,20.2
2022-09-03T12:32:12.387Z,20.2
2022-09-03T12:33:07.783Z,20.2
2022-09-03T12:34:08.543Z,20.3
2022-09-03T12:35:10.077Z,20.3
2022-09-03T12:36:01.071Z,20.2
2022-09-03T12:37:00.352Z,20.1
2022-09-03T12:38:03.971Z,20.2
2022-09-03T12:39:19.009Z,20.0
2022-09-03T12:40:08.247Z,20.0
2022-09-03T12:41:27.000Z,19.9
2022-09-03T12:42:02.585Z,19.8
2022-09-03T12:43:38.659Z,19.8
2022-09-03T12:44:00.275Z,19.8
2022-09-03T12:45:08.717Z,19.8
2022-09-03T12:46:11.998Z,19.8
2022-09-03T12:47:36.109Z,19.8
2022-09-03T12:48:00.266Z,19.8
2022-09-03T12:49:31.065Z,19.8
2022-09-03T12:50:07.519Z,19.9
2022-09-03T12:51:48.001Z,19.9
2022-09-03T12:52:06.944Z,19.9
2022-09-03T12:53:02.359Z,19.8
2022-09-03T12:54:01.470Z,19.9
2022-09-03T12:55:04.763Z,20.1
2022-09-03T12:56:01.663Z,20.2
2022-09-03T12:57:00.790Z,20.1
2022-09-03T12:58:14.017Z,20.2
2022-09-03T12:59:06.259Z,20.2
2022-09-03T13:00:05.417Z,20.2
2022-09-03T13:01:08.986Z,20.2
2022-09-03T13:02:10.257Z,20.2
2022-09-03T13:03:12.516Z,20.4
2022-09-03T13:04:07.637Z,20.4
2022-09-03T13:05:00.808Z,20.4
2022-09-03T13:06:07.028Z,20.4
2022-09-03T13:07:06.952Z,20.4
2022-09-03T13:08:04.117Z,20.3
2022-09-03T13:09:03.326Z,20.2
2022-09-03T13:10:04.387Z,20.2
2022-09-03T13:11:02.868Z,20.2
2022-09-03T13:12:00.356Z,20.2
2022-09-03T13:13:02.172Z,20.1
2022-09-03T13:14:05.001Z,20.0
2022-09-03T13:15:11.252Z,20.0
2022-09-03T13:16:10.179Z,20.0
2022-09-03T13:17:09.343Z,20.0
2022-09-03T13:18:10.185Z,19.9